Terminal Aerodrome Forecast
Issued by NWS

Home | Current Version | Previous Version | Text Only | Print | Product List | Glossary On
Versions: 1 2 3 4 5 6 7 8 9 10 11 12 13 14 15 16 17
000
FTUS43 KMQT 060535
TAFSAW
TAF
KSAW 060535Z 0606/0706 19010KT P6SM BKN200 WS005/21035KT
     FM061300 19010G18KT P6SM BKN100
     FM061600 20014G22KT P6SM -SHRA OVC050
     FM062100 22016G24KT 3SM -SHRA BKN025
     FM062300 25014G22KT 5SM -SHRA BKN007
     FM070200 33014G21KT 4SM -SHRA BR OVC003
     FM070500 34012G20KT P6SM BKN025=

USA.gov is the U.S. government's official web portal to all federal, state and local government web resources and services.